Time;durP1;ratioP1;P1;durP2;ratioP2;P2;SDS_P1;SDS_P2;PMS_P1;PMS_P2;Temp;Humidity;BMP_temperature;BMP_pressure;BME280_temperature;BME280_humidity;BME280_pressure;Samples;Min_cycle;Max_cycle;Signal;HPM_P1;HPM_P2
2023/03/18 00:01:39;;;;;;;13.60;10.07;;;11.10;99.90;;;;;;6135721;23;20067;-79
2023/03/18 00:04:05;;;;;;;15.02;8.98;;;11.20;99.90;;;;;;6088382;23;20036;-75
2023/03/18 00:06:30;;;;;;;13.57;8.63;;;11.20;99.90;;;;;;6160754;23;20025;-79
2023/03/18 00:08:57;;;;;;;13.75;9.40;;;11.20;99.90;;;;;;6134750;23;20335;-78
2023/03/18 00:11:23;;;;;;;10.32;8.35;;;11.20;99.90;;;;;;6111402;23;20041;-78
2023/03/18 00:13:49;;;;;;;14.70;8.80;;;11.40;99.90;;;;;;6160465;23;20189;-77
2023/03/18 00:16:15;;;;;;;10.88;8.18;;;11.30;99.90;;;;;;6137471;23;20201;-75
2023/03/18 00:18:42;;;;;;;11.65;8.05;;;11.50;99.90;;;;;;6160877;23;20032;-76
2023/03/18 00:21:08;;;;;;;12.52;8.35;;;11.50;99.90;;;;;;6161523;23;20308;-75
2023/03/18 00:23:34;;;;;;;10.68;7.97;;;11.60;99.90;;;;;;6113275;23;20010;-77
2023/03/18 00:26:01;;;;;;;13.50;8.60;;;11.70;99.90;;;;;;6137102;23;20044;-76
2023/03/18 00:28:28;;;;;;;11.98;8.73;;;11.60;99.90;;;;;;6110609;23;20093;-76
2023/03/18 00:30:55;;;;;;;12.60;7.78;;;11.70;99.90;;;;;;6134696;23;20162;-75
2023/03/18 00:33:22;;;;;;;12.18;8.00;;;11.80;99.90;;;;;;6135477;23;20014;-75
2023/03/18 00:35:47;;;;;;;12.82;7.72;;;11.70;99.90;;;;;;6185261;23;20059;-78
2023/03/18 00:38:19;;;;;;;13.27;8.30;;;11.60;99.90;;;;;;6135944;23;20017;-76
2023/03/18 00:40:53;;;;;;;9.32;7.50;;;11.70;99.90;;;;;;6136314;23;20033;-76
2023/03/18 00:43:28;;;;;;;11.63;7.38;;;11.80;99.90;;;;;;6135090;23;20036;-77
2023/03/18 00:45:55;;;;;;;17.70;8.80;;;11.60;99.90;;;;;;6135202;23;20021;-76
2023/03/18 00:48:22;;;;;;;10.68;8.00;;;11.80;99.90;;;;;;6135526;23;20210;-75
2023/03/18 00:50:48;;;;;;;11.95;6.82;;;11.60;99.90;;;;;;6110605;23;20013;-75
2023/03/18 00:53:16;;;;;;;12.68;8.48;;;11.60;99.90;;;;;;6135729;23;20005;-75
2023/03/18 00:55:45;;;;;;;9.63;6.80;;;11.70;99.90;;;;;;6159319;23;20021;-77
2023/03/18 00:58:14;;;;;;;10.20;7.38;;;11.60;99.90;;;;;;6135337;23;20373;-78
2023/03/18 01:00:40;;;;;;;10.45;7.78;;;11.50;99.90;;;;;;6134921;23;20005;-80
2023/03/18 01:03:27;;;;;;;;;;;;;;;;;;;;;
2023/03/18 01:05:56;;;;;;;10.10;7.70;;;11.30;99.90;;;;;;6157049;23;20017;-74
2023/03/18 01:08:25;;;;;;;14.00;7.78;;;11.30;99.90;;;;;;6134112;23;20032;-77
2023/03/18 01:10:52;;;;;;;12.05;8.25;;;11.30;99.90;;;;;;6159512;23;20193;-77
2023/03/18 01:13:22;;;;;;;12.35;8.73;;;11.30;99.90;;;;;;6159631;23;20014;-77
2023/03/18 01:15:52;;;;;;;12.98;8.98;;;11.20;99.90;;;;;;6134782;23;20091;-77
2023/03/18 01:18:17;;;;;;;9.88;7.80;;;11.20;99.90;;;;;;6134349;23;20016;-79
2023/03/18 01:20:43;;;;;;;13.60;9.88;;;11.20;99.90;;;;;;6110585;23;20049;-76
2023/03/18 01:23:10;;;;;;;12.07;9.38;;;10.90;99.90;;;;;;6135411;23;20012;-78
2023/03/18 01:25:36;;;;;;;12.75;9.98;;;10.90;99.90;;;;;;6135612;23;20065;-75
2023/03/18 01:28:02;;;;;;;12.57;9.70;;;10.80;99.90;;;;;;6111772;23;1107964;-75
2023/03/18 01:30:29;;;;;;;14.77;10.48;;;11.00;99.90;;;;;;6136221;23;20088;-76
2023/03/18 01:32:56;;;;;;;13.52;9.88;;;10.90;99.90;;;;;;6064318;23;20200;-76
2023/03/18 01:35:22;;;;;;;11.93;8.68;;;11.00;99.90;;;;;;6136656;23;20013;-74
2023/03/18 01:37:49;;;;;;;12.10;10.32;;;10.70;99.90;;;;;;6186188;23;20009;-77
2023/03/18 01:40:15;;;;;;;13.82;9.98;;;10.80;99.90;;;;;;6161390;23;20017;-77
2023/03/18 01:42:42;;;;;;;12.68;9.52;;;10.50;99.90;;;;;;6185955;23;20032;-78
2023/03/18 01:45:23;;;;;;;12.90;10.05;;;10.50;99.90;;;;;;6112447;23;20009;-78
2023/03/18 01:47:49;;;;;;;16.55;11.80;;;10.50;99.90;;;;;;6137010;23;20285;-74
2023/03/18 01:50:19;;;;;;;16.60;11.43;;;10.50;99.90;;;;;;6135775;23;20019;-79
2023/03/18 01:52:52;;;;;;;15.63;11.75;;;10.30;99.90;;;;;;6137477;23;20013;-77
2023/03/18 01:55:21;;;;;;;16.70;13.00;;;9.80;99.90;;;;;;6161105;23;20013;-76
2023/03/18 01:57:48;;;;;;;22.48;12.43;;;10.20;99.90;;;;;;6161260;23;20022;-77
2023/03/18 02:00:15;;;;;;;15.23;12.13;;;10.10;99.90;;;;;;6136147;23;20098;-75
2023/03/18 02:02:44;;;;;;;19.02;12.80;;;10.20;99.90;;;;;;6135435;23;20020;-78
2023/03/18 02:05:13;;;;;;;16.83;12.10;;;10.00;99.90;;;;;;6136948;23;20010;-77
2023/03/18 02:07:41;;;;;;;15.90;12.05;;;10.00;99.90;;;;;;6136234;23;20022;-76
2023/03/18 02:10:14;;;;;;;19.02;13.13;;;10.20;99.90;;;;;;6160500;23;20021;-78
2023/03/18 02:12:55;;;;;;;15.80;13.00;;;10.00;99.90;;;;;;6134813;23;20264;-78
2023/03/18 02:15:22;;;;;;;21.58;12.82;;;10.10;99.90;;;;;;6136390;23;20113;-77
2023/03/18 02:17:58;;;;;;;22.25;16.17;;;10.30;99.90;;;;;;6136411;23;20050;-77
2023/03/18 02:20:56;;;;;;;23.73;16.58;;;10.50;99.90;;;;;;6111083;23;20067;-76
2023/03/18 02:23:50;;;;;;;20.05;15.50;;;10.40;99.90;;;;;;6110642;23;20338;-76
2023/03/18 02:26:42;;;;;;;23.58;16.30;;;10.30;99.90;;;;;;6160613;23;20040;-77
2023/03/18 02:29:10;;;;;;;24.50;17.38;;;10.30;99.90;;;;;;6136621;23;20029;-77
2023/03/18 02:31:37;;;;;;;20.08;16.13;;;10.50;99.90;;;;;;6136848;23;20024;-76
2023/03/18 02:34:06;;;;;;;23.77;16.48;;;10.50;99.90;;;;;;6136459;23;20013;-76
2023/03/18 02:36:34;;;;;;;24.30;17.85;;;10.40;99.90;;;;;;6161368;23;20465;-77
2023/03/18 02:39:00;;;;;;;23.33;18.88;;;10.20;99.90;;;;;;6089178;23;20021;-79
2023/03/18 02:41:30;;;;;;;23.50;18.30;;;10.30;99.90;;;;;;6112207;23;20018;-76
2023/03/18 02:43:56;;;;;;;23.33;17.73;;;10.20;99.90;;;;;;6135833;23;20284;-79
2023/03/18 02:46:34;;;;;;;24.85;19.08;;;10.20;99.90;;;;;;6136387;23;20009;-74
2023/03/18 02:49:02;;;;;;;24.65;20.15;;;10.50;99.90;;;;;;6136707;23;20020;-77
2023/03/18 02:51:29;;;;;;;26.30;19.98;;;10.40;99.90;;;;;;6112205;23;20355;-77
2023/03/18 02:54:00;;;;;;;28.98;21.88;;;10.40;99.90;;;;;;6111271;23;20072;-76
2023/03/18 02:56:28;;;;;;;31.13;22.08;;;10.40;99.90;;;;;;6160931;23;20040;-77
2023/03/18 02:58:54;;;;;;;31.45;22.73;;;10.10;99.90;;;;;;6112443;23;20243;-75
2023/03/18 03:01:21;;;;;;;27.33;22.25;;;10.30;99.90;;;;;;6087935;23;20013;-77
2023/03/18 03:03:47;;;;;;;29.40;22.98;;;10.40;99.90;;;;;;6134591;23;20013;-77
2023/03/18 03:06:13;;;;;;;30.10;22.00;;;10.50;99.90;;;;;;6136322;23;20018;-77
2023/03/18 03:08:39;;;;;;;28.58;22.10;;;10.50;99.90;;;;;;6111501;23;20045;-76
2023/03/18 03:11:05;;;;;;;26.25;21.55;;;10.20;99.90;;;;;;6136808;23;20041;-75
2023/03/18 03:13:30;;;;;;;31.80;22.75;;;10.50;99.90;;;;;;6087019;23;20013;-76
2023/03/18 03:15:56;;;;;;;29.40;21.60;;;10.20;99.90;;;;;;6112555;23;20041;-77
2023/03/18 03:18:22;;;;;;;27.38;22.25;;;10.50;99.90;;;;;;6111968;23;20018;-76
2023/03/18 03:20:50;;;;;;;29.17;21.85;;;10.10;99.90;;;;;;6136259;23;20009;-74
2023/03/18 03:23:16;;;;;;;26.63;20.02;;;10.40;99.90;;;;;;6112087;23;20009;-74
2023/03/18 03:25:43;;;;;;;28.08;21.65;;;10.30;99.90;;;;;;6087742;23;20009;-77
2023/03/18 03:28:12;;;;;;;32.30;23.05;;;9.90;99.90;;;;;;6136056;23;20347;-75
2023/03/18 03:30:38;;;;;;;27.08;21.80;;;10.20;99.90;;;;;;6159691;23;20127;-76
2023/03/18 03:33:05;;;;;;;30.88;22.77;;;9.80;99.90;;;;;;6110122;23;20343;-79
2023/03/18 03:35:31;;;;;;;33.75;23.90;;;9.80;99.90;;;;;;6108902;23;20177;-79
2023/03/18 03:37:57;;;;;;;31.85;24.70;;;9.90;99.90;;;;;;6110543;23;20014;-77
2023/03/18 03:40:23;;;;;;;35.50;26.42;;;10.00;99.90;;;;;;6062877;23;20195;-78
2023/03/18 03:42:48;;;;;;;33.97;24.73;;;10.10;99.90;;;;;;6134490;23;20009;-77
2023/03/18 03:45:17;;;;;;;31.05;24.10;;;10.30;99.90;;;;;;6086429;23;20016;-78
2023/03/18 03:47:45;;;;;;;33.53;26.20;;;10.10;99.90;;;;;;6134520;23;20185;-77
2023/03/18 03:50:12;;;;;;;31.67;25.25;;;10.20;99.90;;;;;;6110137;23;20065;-76
2023/03/18 03:52:38;;;;;;;33.83;24.83;;;10.40;99.90;;;;;;6133994;23;20020;-78
2023/03/18 03:55:06;;;;;;;35.15;25.20;;;10.00;99.90;;;;;;6134384;23;20600;-76
2023/03/18 03:57:34;;;;;;;35.92;26.40;;;10.50;99.90;;;;;;6158205;23;20009;-77
2023/03/18 04:00:00;;;;;;;37.75;25.23;;;10.60;99.90;;;;;;6086067;23;20009;-77
2023/03/18 04:02:26;;;;;;;36.00;25.48;;;10.60;99.90;;;;;;6110529;23;20010;-78
2023/03/18 04:04:52;;;;;;;36.50;26.23;;;10.40;99.90;;;;;;6109386;23;20200;-77
2023/03/18 04:07:18;;;;;;;35.33;26.50;;;10.10;99.90;;;;;;6134286;23;20225;-80
2023/03/18 04:10:19;;;;;;;33.13;25.52;;;10.60;99.90;;;;;;6159812;23;20023;-76
2023/03/18 04:12:46;;;;;;;32.05;25.05;;;10.30;99.90;;;;;;6110969;23;20013;-77
2023/03/18 04:18:52;;;;;;;33.88;24.58;;;10.30;99.90;;;;;;6161723;23;20368;-78
2023/03/18 04:21:18;;;;;;;33.40;25.73;;;9.90;99.90;;;;;;6112277;23;20018;-77
2023/03/18 04:23:44;;;;;;;36.00;26.67;;;10.00;99.90;;;;;;6111374;23;20020;-77
2023/03/18 04:26:11;;;;;;;34.63;25.48;;;10.40;99.90;;;;;;6111049;23;20018;-79
2023/03/18 04:28:37;;;;;;;32.03;24.58;;;9.80;99.90;;;;;;6087028;23;20065;-78
2023/03/18 04:31:03;;;;;;;31.77;24.27;;;9.80;99.90;;;;;;6086871;23;20237;-80
2023/03/18 04:33:28;;;;;;;30.40;21.73;;;10.20;99.90;;;;;;6110761;23;20021;-77
2023/03/18 04:35:54;;;;;;;31.63;23.08;;;10.00;99.90;;;;;;6111149;23;20329;-76
2023/03/18 04:38:20;;;;;;;32.78;23.38;;;10.20;99.90;;;;;;6063669;23;20025;-77
2023/03/18 04:40:46;;;;;;;37.35;26.70;;;9.60;99.90;;;;;;6136298;23;20010;-76
2023/03/18 04:43:12;;;;;;;35.45;25.00;;;10.30;99.90;;;;;;6136510;23;20069;-76
2023/03/18 04:45:38;;;;;;;33.75;25.65;;;9.90;99.90;;;;;;6136201;23;20017;-77
2023/03/18 04:48:04;;;;;;;35.20;25.25;;;9.70;99.90;;;;;;6109255;23;20189;-80
2023/03/18 04:50:30;;;;;;;36.80;24.92;;;10.20;99.90;;;;;;6136630;23;20298;-78
2023/03/18 04:52:57;;;;;;;39.17;26.95;;;10.30;99.90;;;;;;6111436;23;20040;-78
2023/03/18 04:55:30;;;;;;;34.30;25.90;;;10.20;99.90;;;;;;6087611;23;20056;-77
2023/03/18 04:57:56;;;;;;;38.55;26.27;;;10.40;99.90;;;;;;6052912;23;20070;-76
2023/03/18 05:00:22;;;;;;;35.40;26.05;;;9.70;99.90;;;;;;6124934;23;20233;-75
2023/03/18 05:02:48;;;;;;;36.40;26.73;;;9.80;99.90;;;;;;6075684;23;20081;-77
2023/03/18 05:05:14;;;;;;;32.45;24.52;;;10.50;99.90;;;;;;6100329;23;20078;-77
2023/03/18 05:07:41;;;;;;;33.78;24.52;;;10.40;99.90;;;;;;6076181;23;20018;-79
2023/03/18 05:10:07;;;;;;;36.97;25.77;;;10.40;99.90;;;;;;6075443;23;20022;-78
2023/03/18 05:12:34;;;;;;;36.03;25.25;;;10.20;99.90;;;;;;6077045;23;20018;-76
2023/03/18 05:15:00;;;;;;;31.52;24.48;;;9.80;99.90;;;;;;6077449;23;20584;-74
2023/03/18 05:17:26;;;;;;;38.78;25.00;;;10.00;99.90;;;;;;6077076;23;20006;-76
2023/03/18 05:19:51;;;;;;;31.65;23.83;;;10.20;99.90;;;;;;6125508;23;20018;-75
2023/03/18 05:22:19;;;;;;;30.83;22.23;;;9.80;99.90;;;;;;6077485;23;20010;-76
2023/03/18 05:24:45;;;;;;;31.98;22.10;;;10.00;99.90;;;;;;6075464;23;20010;-76
2023/03/18 05:27:13;;;;;;;30.05;23.42;;;10.50;99.90;;;;;;6101398;23;20308;-75
2023/03/18 05:29:39;;;;;;;29.83;22.17;;;10.20;99.90;;;;;;6125550;23;20021;-76
2023/03/18 05:32:06;;;;;;;28.45;20.90;;;10.20;99.90;;;;;;6112785;23;20057;-76
2023/03/18 05:34:36;;;;;;;33.65;22.17;;;10.10;99.90;;;;;;6089507;23;20073;-78
2023/03/18 05:37:08;;;;;;;29.17;20.95;;;9.90;99.90;;;;;;6112752;23;20200;-76
2023/03/18 05:39:34;;;;;;;29.25;20.73;;;10.50;99.90;;;;;;6136647;23;20272;-79
2023/03/18 05:42:01;;;;;;;29.63;20.73;;;10.40;99.90;;;;;;6112094;23;20016;-75
2023/03/18 05:44:27;;;;;;;29.48;21.13;;;10.30;99.90;;;;;;6112085;23;20017;-75
2023/03/18 05:46:52;;;;;;;26.73;21.15;;;10.00;99.90;;;;;;6111564;23;20009;-76
2023/03/18 05:49:19;;;;;;;29.00;21.55;;;10.20;99.90;;;;;;6111850;23;20021;-77
2023/03/18 05:51:45;;;;;;;32.78;21.40;;;10.30;99.90;;;;;;6110785;23;20192;-77
2023/03/18 05:54:12;;;;;;;28.00;20.65;;;10.20;99.90;;;;;;6160799;23;20404;-77
2023/03/18 05:56:38;;;;;;;29.13;20.90;;;10.20;99.90;;;;;;6161021;23;20173;-78
2023/03/18 05:59:05;;;;;;;30.90;21.77;;;10.50;99.90;;;;;;6136203;23;20013;-77
2023/03/18 06:01:32;;;;;;;33.22;21.95;;;10.70;99.90;;;;;;6136368;23;20013;-78
2023/03/18 06:03:58;;;;;;;33.65;21.65;;;10.20;99.90;;;;;;6112060;23;20009;-76
2023/03/18 06:06:25;;;;;;;33.72;21.40;;;11.10;99.90;;;;;;6089017;23;20009;-75
2023/03/18 06:08:51;;;;;;;30.40;21.75;;;11.10;99.90;;;;;;6135732;23;20065;-75
2023/03/18 06:11:17;;;;;;;35.05;20.95;;;10.40;99.90;;;;;;6088108;23;20021;-77
2023/03/18 06:13:44;;;;;;;32.38;22.60;;;10.70;99.90;;;;;;6111853;23;20040;-78
2023/03/18 06:16:10;;;;;;;33.65;21.40;;;11.20;99.90;;;;;;6135428;23;20020;-78
2023/03/18 06:18:37;;;;;;;34.17;22.35;;;10.30;99.90;;;;;;6111870;23;20021;-75
2023/03/18 06:21:03;;;;;;;35.45;21.52;;;10.60;99.90;;;;;;6135460;23;20009;-79
2023/03/18 06:23:30;;;;;;;35.67;20.75;;;10.60;99.90;;;;;;6111388;23;20041;-76
2023/03/18 06:25:56;;;;;;;31.02;21.38;;;10.50;99.90;;;;;;6087696;23;20052;-78
2023/03/18 06:28:22;;;;;;;36.17;21.20;;;11.10;99.90;;;;;;6087096;23;20021;-78
2023/03/18 06:30:47;;;;;;;32.70;22.40;;;11.00;99.90;;;;;;6160337;23;20024;-77
2023/03/18 06:33:14;;;;;;;33.08;21.50;;;11.10;99.90;;;;;;6135749;23;20292;-79
2023/03/18 06:35:40;;;;;;;33.03;22.02;;;10.60;99.90;;;;;;6112154;23;20023;-77
2023/03/18 06:38:07;;;;;;;29.85;21.05;;;11.30;99.90;;;;;;6135432;23;20060;-78
2023/03/18 06:40:33;;;;;;;28.02;20.05;;;11.20;99.90;;;;;;6136667;23;20067;-80
2023/03/18 06:42:59;;;;;;;28.95;20.50;;;11.20;99.90;;;;;;6086466;23;20018;-77
2023/03/18 06:45:25;;;;;;;30.48;20.30;;;11.10;99.90;;;;;;6087702;23;20200;-78
2023/03/18 06:47:50;;;;;;;32.85;21.58;;;10.80;99.90;;;;;;6135551;23;20020;-77
2023/03/18 06:50:17;;;;;;;37.60;23.33;;;11.30;99.90;;;;;;6136043;23;20009;-74
2023/03/18 06:52:43;;;;;;;32.03;22.45;;;10.70;99.90;;;;;;6135378;23;20009;-74
2023/03/18 06:55:10;;;;;;;39.13;25.52;;;10.70;99.90;;;;;;6111574;23;20020;-77
2023/03/18 06:57:36;;;;;;;35.78;23.58;;;10.90;99.90;;;;;;6136061;23;20323;-76
2023/03/18 07:00:03;;;;;;;33.60;21.90;;;10.80;99.90;;;;;;6086210;23;20028;-76
2023/03/18 07:02:29;;;;;;;35.60;22.80;;;10.90;99.90;;;;;;6135261;23;20016;-75
2023/03/18 07:04:59;;;;;;;32.47;22.90;;;10.80;99.90;;;;;;6110294;23;20457;-79
2023/03/18 07:07:27;;;;;;;32.63;23.55;;;11.40;99.90;;;;;;6063817;23;20037;-76
2023/03/18 07:09:53;;;;;;;36.20;23.35;;;10.90;99.90;;;;;;6111303;23;20010;-75
2023/03/18 07:12:22;;;;;;;32.97;21.73;;;11.40;99.90;;;;;;6111329;23;20010;-78
2023/03/18 07:14:48;;;;;;;35.20;23.00;;;11.70;99.90;;;;;;6109514;23;20530;-75
2023/03/18 07:17:14;;;;;;;29.85;21.17;;;11.20;99.90;;;;;;6063074;23;20018;-77
2023/03/18 07:20:09;;;;;;;33.40;23.02;;;11.10;99.90;;;;;;6136025;23;20024;-78
2023/03/18 07:22:36;;;;;;;32.15;21.90;;;11.30;99.90;;;;;;6134317;23;20181;-76
2023/03/18 07:25:02;;;;;;;32.38;21.73;;;11.80;99.90;;;;;;6085768;23;20017;-77
2023/03/18 07:27:28;;;;;;;30.77;20.92;;;12.80;99.90;;;;;;6135891;23;20228;-76
2023/03/18 07:29:55;;;;;;;29.42;18.13;;;13.00;99.90;;;;;;6135100;23;20025;-75
2023/03/18 07:32:22;;;;;;;26.67;18.13;;;13.40;99.90;;;;;;6135355;23;20028;-75
2023/03/18 07:34:48;;;;;;;24.50;18.52;;;13.30;99.90;;;;;;6110260;23;20056;-75
2023/03/18 07:37:14;;;;;;;23.77;18.30;;;13.40;99.90;;;;;;6111626;23;20009;-76
2023/03/18 07:39:42;;;;;;;28.70;20.10;;;13.10;99.90;;;;;;6161029;23;20048;-76
2023/03/18 07:42:09;;;;;;;27.90;19.45;;;12.70;99.90;;;;;;6113601;23;20052;-79
2023/03/18 07:44:36;;;;;;;27.10;18.75;;;13.20;99.90;;;;;;6136697;23;20415;-78
2023/03/18 07:47:04;;;;;;;26.75;19.58;;;13.40;99.90;;;;;;6161940;23;20296;-76
2023/03/18 07:49:33;;;;;;;27.42;20.20;;;13.20;99.90;;;;;;6111978;23;20013;-77
2023/03/18 07:51:59;;;;;;;25.98;19.05;;;13.90;99.90;;;;;;6111712;23;20029;-75
2023/03/18 07:54:25;;;;;;;24.70;18.70;;;13.40;99.90;;;;;;6184621;23;20013;-76
2023/03/18 07:56:51;;;;;;;24.80;18.65;;;13.40;99.90;;;;;;6108609;23;20020;-77
2023/03/18 07:59:17;;;;;;;23.55;17.92;;;13.50;99.90;;;;;;6087264;23;20236;-75
2023/03/18 08:01:43;;;;;;;32.05;18.85;;;13.60;99.90;;;;;;6086812;23;20072;-77
2023/03/18 08:04:11;;;;;;;27.50;18.35;;;13.40;99.90;;;;;;6159708;23;20017;-78
2023/03/18 08:06:38;;;;;;;24.17;17.80;;;13.60;99.90;;;;;;6088596;23;20036;-76
2023/03/18 08:09:04;;;;;;;27.45;18.40;;;13.80;99.90;;;;;;6111219;23;20021;-77
2023/03/18 08:11:31;;;;;;;27.35;20.42;;;13.90;99.90;;;;;;6110390;23;20016;-76
2023/03/18 08:13:58;;;;;;;29.08;20.08;;;13.80;99.90;;;;;;6159470;23;20013;-78
2023/03/18 08:16:24;;;;;;;26.90;20.10;;;13.30;99.90;;;;;;6109388;23;20241;-75
2023/03/18 08:18:50;;;;;;;25.58;19.52;;;13.70;99.90;;;;;;6135031;23;20099;-75
2023/03/18 08:21:16;;;;;;;24.92;19.85;;;13.90;99.90;;;;;;6086608;23;20064;-75
2023/03/18 08:23:41;;;;;;;28.35;21.85;;;13.80;99.90;;;;;;6111492;23;20024;-74
2023/03/18 08:26:08;;;;;;;25.75;19.70;;;13.90;99.90;;;;;;6086297;23;20033;-75
2023/03/18 08:28:34;;;;;;;30.13;20.33;;;13.70;99.90;;;;;;6111216;23;20017;-75
2023/03/18 08:31:00;;;;;;;27.33;20.55;;;14.00;99.90;;;;;;6159143;23;20029;-75
2023/03/18 08:33:27;;;;;;;24.85;19.85;;;13.90;99.90;;;;;;6135160;23;20117;-79
2023/03/18 08:35:54;;;;;;;26.40;20.13;;;13.40;99.90;;;;;;6161740;23;20018;-79
2023/03/18 08:38:22;;;;;;;25.10;20.10;;;13.40;99.90;;;;;;6162159;23;20017;-78
2023/03/18 08:40:49;;;;;;;25.67;20.52;;;13.40;99.90;;;;;;6113325;23;20064;-79
2023/03/18 08:43:15;;;;;;;26.05;19.30;;;13.40;99.90;;;;;;6088075;23;20010;-77
2023/03/18 08:45:44;;;;;;;24.85;20.08;;;13.70;99.90;;;;;;6112816;23;20076;-74
2023/03/18 08:48:12;;;;;;;28.80;19.13;;;13.70;99.90;;;;;;6135569;23;20022;-75
2023/03/18 08:50:37;;;;;;;23.48;18.65;;;13.80;99.90;;;;;;6088586;23;20057;-75
2023/03/18 08:53:04;;;;;;;27.15;19.67;;;13.60;99.90;;;;;;6134181;23;20092;-76
2023/03/18 08:55:33;;;;;;;25.75;19.05;;;13.80;99.90;;;;;;6133716;23;20022;-74
2023/03/18 08:58:00;;;;;;;25.83;19.50;;;13.40;99.90;;;;;;6134194;23;20014;-76
2023/03/18 09:00:27;;;;;;;26.45;19.52;;;13.40;99.90;;;;;;6111434;23;20009;-78
2023/03/18 09:02:53;;;;;;;23.88;19.20;;;13.70;99.90;;;;;;6089000;23;20025;-77
2023/03/18 09:05:19;;;;;;;23.92;19.05;;;13.90;99.90;;;;;;6135634;23;20068;-72
2023/03/18 09:07:45;;;;;;;24.08;19.60;;;13.40;99.90;;;;;;6088029;23;20020;-76
2023/03/18 09:10:13;;;;;;;28.00;19.83;;;13.80;99.90;;;;;;6160931;23;20029;-76
2023/03/18 09:12:41;;;;;;;24.27;19.38;;;13.90;99.90;;;;;;6112486;23;20064;-76
2023/03/18 09:15:11;;;;;;;22.13;19.02;;;13.70;99.90;;;;;;6160090;23;20244;-74
2023/03/18 09:17:39;;;;;;;23.70;18.70;;;13.70;99.90;;;;;;6160742;23;20024;-76
2023/03/18 09:20:07;;;;;;;24.40;19.05;;;13.60;99.90;;;;;;6135382;23;20044;-77
2023/03/18 09:22:34;;;;;;;27.80;19.88;;;13.50;99.90;;;;;;6136530;23;20010;-76
2023/03/18 09:24:59;;;;;;;23.13;17.98;;;13.60;99.90;;;;;;6134306;23;20434;-77
2023/03/18 09:27:26;;;;;;;22.92;18.73;;;14.00;99.90;;;;;;6058580;23;20069;-76
2023/03/18 09:29:52;;;;;;;25.80;20.45;;;13.80;99.90;;;;;;6106867;23;20403;-75
2023/03/18 09:32:17;;;;;;;27.92;20.33;;;13.60;99.90;;;;;;6107260;23;20026;-76
2023/03/18 09:34:43;;;;;;;27.55;21.95;;;13.70;99.90;;;;;;6106589;23;20017;-77
2023/03/18 09:37:12;;;;;;;29.23;21.38;;;13.90;99.90;;;;;;6106356;23;20092;-76
2023/03/18 09:39:38;;;;;;;29.48;22.33;;;14.30;99.90;;;;;;6131910;23;20068;-78
2023/03/18 09:42:04;;;;;;;25.42;21.55;;;14.10;99.90;;;;;;6082572;23;20010;-74
2023/03/18 09:44:32;;;;;;;29.30;22.58;;;14.40;99.90;;;;;;6129846;23;20539;-78
2023/03/18 09:47:17;;;;;;;28.70;22.05;;;14.60;99.90;;;;;;6130213;23;20050;-77
2023/03/18 09:49:52;;;;;;;25.73;21.42;;;14.20;99.90;;;;;;6106692;23;20305;-77
2023/03/18 09:52:31;;;;;;;28.75;23.33;;;14.60;99.90;;;;;;6106250;23;20022;-76
2023/03/18 09:55:03;;;;;;;25.98;20.73;;;14.60;99.90;;;;;;6130123;23;20020;-78
2023/03/18 09:57:33;;;;;;;26.88;21.30;;;15.10;99.90;;;;;;6106341;23;20092;-75
2023/03/18 10:00:07;;;;;;;28.30;20.65;;;15.20;99.90;;;;;;6131094;23;20037;-75
2023/03/18 10:02:41;;;;;;;28.73;21.85;;;15.30;99.90;;;;;;6130929;23;20061;-78
2023/03/18 10:05:47;;;;;;;26.43;20.93;;;15.70;99.90;;;;;;6081101;23;20053;-76
2023/03/18 10:08:23;;;;;;;30.77;21.23;;;15.70;99.90;;;;;;6067389;23;20181;-74
2023/03/18 10:10:48;;;;;;;28.20;21.65;;;16.10;99.90;;;;;;6131738;23;20029;-77
2023/03/18 10:13:37;;;;;;;25.25;21.67;;;16.70;99.90;;;;;;6059023;23;20367;-76
2023/03/18 10:16:07;;;;;;;25.60;20.50;;;16.90;99.90;;;;;;6105955;23;20014;-76
2023/03/18 10:18:36;;;;;;;26.40;21.80;;;17.00;99.90;;;;;;6107136;23;20297;-75
2023/03/18 10:21:10;;;;;;;27.42;21.00;;;16.50;99.90;;;;;;6106300;23;20193;-76
2023/03/18 10:23:53;;;;;;;22.67;19.05;;;17.20;99.90;;;;;;6106843;23;20380;-76
2023/03/18 10:26:25;;;;;;;25.13;20.02;;;17.10;99.90;;;;;;6106559;23;20292;-76
2023/03/18 10:29:02;;;;;;;24.58;19.75;;;17.80;99.90;;;;;;6130183;23;20045;-75
2023/03/18 10:31:34;;;;;;;22.67;19.02;;;17.80;99.90;;;;;;6136324;23;20032;-77
2023/03/18 10:34:23;;;;;;;22.38;19.80;;;17.90;99.90;;;;;;6135939;23;20020;-78
2023/03/18 10:37:09;;;;;;;23.10;18.98;;;17.40;99.90;;;;;;6160938;23;20020;-75
2023/03/18 10:39:36;;;;;;;21.60;17.77;;;16.90;99.90;;;;;;6136193;23;20288;-78
2023/03/18 10:42:27;;;;;;;21.27;18.92;;;17.10;99.90;;;;;;6160984;23;20010;-77
2023/03/18 10:45:01;;;;;;;21.25;17.23;;;17.60;99.90;;;;;;6136398;23;20074;-78
2023/03/18 10:47:32;;;;;;;20.83;17.95;;;17.50;99.90;;;;;;6161252;23;20009;-78
2023/03/18 10:50:30;;;;;;;19.67;17.60;;;17.20;99.90;;;;;;6136758;23;20016;-76
2023/03/18 10:53:13;;;;;;;18.35;15.05;;;17.10;99.90;;;;;;6111676;23;20013;-79
2023/03/18 10:55:55;;;;;;;20.50;16.02;;;17.40;99.90;;;;;;6111291;23;20016;-78
2023/03/18 10:58:20;;;;;;;22.30;17.15;;;18.00;99.90;;;;;;6135319;23;20025;-78
2023/03/18 11:00:46;;;;;;;19.30;17.23;;;18.10;99.90;;;;;;6135978;23;20016;-78
2023/03/18 11:03:36;;;;;;;19.50;15.68;;;18.20;99.90;;;;;;6063552;23;20005;-76
2023/03/18 11:06:06;;;;;;;18.67;15.25;;;18.10;99.90;;;;;;6160109;23;20009;-77
2023/03/18 11:08:38;;;;;;;17.60;15.05;;;17.80;99.90;;;;;;6133054;23;20025;-76
2023/03/18 11:11:14;;;;;;;17.45;15.48;;;18.00;99.90;;;;;;6134582;23;20322;-79
2023/03/18 11:13:48;;;;;;;19.80;15.10;;;18.00;99.90;;;;;;6135582;23;20509;-76
2023/03/18 11:16:23;;;;;;;17.10;15.27;;;18.00;99.90;;;;;;6135274;23;20213;-80
2023/03/18 11:18:50;;;;;;;17.52;15.20;;;17.80;99.90;;;;;;6113308;23;20091;-76
2023/03/18 11:21:16;;;;;;;20.08;15.73;;;17.90;99.90;;;;;;6113017;23;20037;-77
2023/03/18 11:24:09;;;;;;;17.60;13.95;;;17.90;99.90;;;;;;6137284;23;20053;-73
2023/03/18 11:26:55;;;;;;;15.95;13.48;;;17.60;99.90;;;;;;6161157;23;20009;-74
2023/03/18 11:29:25;;;;;;;17.50;13.50;;;17.30;99.90;;;;;;6112683;23;20040;-74
2023/03/18 11:32:00;;;;;;;16.98;14.48;;;17.70;99.90;;;;;;6136801;23;20017;-75
2023/03/18 11:34:30;;;;;;;19.48;14.20;;;17.40;99.90;;;;;;6112291;23;20108;-74
2023/03/18 11:37:10;;;;;;;14.65;13.13;;;17.40;99.90;;;;;;6135836;23;20013;-75
2023/03/18 11:39:40;;;;;;;15.10;13.50;;;17.50;99.90;;;;;;6088786;23;20014;-74
2023/03/18 11:42:20;;;;;;;17.35;14.75;;;17.30;99.90;;;;;;6159714;23;20116;-80
2023/03/18 11:44:54;;;;;;;20.75;14.32;;;17.20;99.90;;;;;;6161887;23;20180;-75
2023/03/18 11:47:33;;;;;;;18.92;14.63;;;16.90;99.90;;;;;;6159292;23;20025;-79
2023/03/18 11:50:03;;;;;;;16.92;13.95;;;16.70;99.90;;;;;;6136950;23;20271;-76
2023/03/18 11:52:41;;;;;;;17.10;14.02;;;16.90;99.90;;;;;;6112833;23;20010;-75
2023/03/18 11:55:19;;;;;;;21.00;17.08;;;16.70;99.90;;;;;;6161685;23;20340;-78
2023/03/18 11:58:15;;;;;;;19.52;16.30;;;16.50;99.90;;;;;;6110053;23;20016;-78
2023/03/18 12:00:49;;;;;;;20.98;17.90;;;16.20;99.90;;;;;;6134825;23;20021;-77
2023/03/18 12:03:15;;;;;;;22.87;17.47;;;16.10;99.90;;;;;;6135076;23;20109;-76
2023/03/18 12:06:07;;;;;;;18.52;15.18;;;16.30;99.90;;;;;;6134695;23;20248;-77
2023/03/18 12:09:00;;;;;;;19.02;15.13;;;16.40;99.90;;;;;;6132940;23;20013;-73
2023/03/18 12:12:03;;;;;;;18.08;14.40;;;16.40;99.90;;;;;;6132634;23;20049;-75
2023/03/18 12:14:51;;;;;;;15.00;12.93;;;16.20;99.90;;;;;;6088178;23;20049;-75
2023/03/18 12:17:42;;;;;;;18.23;13.15;;;16.20;99.90;;;;;;6133911;23;20079;-72
2023/03/18 12:20:32;;;;;;;16.15;12.40;;;16.50;99.90;;;;;;6183231;23;20188;-75
2023/03/18 12:23:03;;;;;;;15.98;13.02;;;17.40;99.90;;;;;;6134010;23;20013;-76
2023/03/18 12:25:43;;;;;;;17.20;12.75;;;17.70;99.90;;;;;;6109207;23;20013;-76
2023/03/18 12:28:33;;;;;;;14.90;12.98;;;17.90;99.90;;;;;;6134140;23;20013;-75
2023/03/18 12:31:27;;;;;;;15.07;12.77;;;17.80;99.90;;;;;;6134237;23;20032;-76
2023/03/18 12:33:58;;;;;;;14.63;12.30;;;17.70;99.90;;;;;;6184226;23;20048;-76
2023/03/18 12:36:38;;;;;;;15.80;12.35;;;17.70;99.90;;;;;;6133893;23;20337;-75
2023/03/18 12:39:57;;;;;;;16.42;12.57;;;17.70;99.90;;;;;;6134742;23;20048;-76
2023/03/18 12:42:48;;;;;;;16.90;11.60;;;17.60;99.90;;;;;;6110474;23;20039;-75
2023/03/18 12:45:21;;;;;;;12.85;11.40;;;17.50;99.90;;;;;;6111828;23;20051;-76
2023/03/18 12:47:58;;;;;;;13.63;9.82;;;18.30;99.90;;;;;;6136658;23;20403;-75
2023/03/18 12:50:31;;;;;;;13.13;10.48;;;18.40;99.90;;;;;;6136002;23;20049;-79